createdAt,value
2018-01-27T00:00:52.811Z,6.77
2018-01-27T00:01:52.787Z,6.92
2018-01-27T00:02:52.766Z,6.78
2018-01-27T00:03:52.241Z,6.85
2018-01-27T00:04:52.706Z,6.88
2018-01-27T00:05:52.683Z,6.81
2018-01-27T00:06:52.402Z,6.85
2018-01-27T00:07:52.622Z,6.78
2018-01-27T00:08:52.600Z,6.82
2018-01-27T00:09:52.570Z,6.84
2018-01-27T00:10:52.550Z,6.84
2018-01-27T00:11:52.518Z,6.79
2018-01-27T00:12:51.999Z,6.78
2018-01-27T00:13:52.470Z,6.77
2018-01-27T00:14:52.436Z,6.79
2018-01-27T00:15:51.921Z,6.72
2018-01-27T00:16:52.381Z,6.75
2018-01-27T00:17:52.355Z,6.7
2018-01-27T00:18:52.365Z,6.72
2018-01-27T00:19:52.057Z,6.74
2018-01-27T00:20:52.034Z,6.72
2018-01-27T00:21:51.756Z,6.69
2018-01-27T00:22:51.971Z,6.77
2018-01-27T00:23:51.948Z,6.75
2018-01-27T00:24:52.167Z,6.7
2018-01-27T00:25:52.135Z,6.67
2018-01-27T00:26:52.113Z,6.66
2018-01-27T00:27:52.092Z,6.67
2018-01-27T00:28:52.059Z,6.6
2018-01-27T00:29:52.038Z,6.69
2018-01-27T00:30:51.760Z,6.64
2018-01-27T00:31:51.736Z,6.7
2018-01-27T00:32:51.706Z,6.72
2018-01-27T00:33:51.680Z,6.69
2018-01-27T00:34:51.650Z,6.66
2018-01-27T00:35:51.622Z,6.67
2018-01-27T00:36:51.844Z,6.69
2018-01-27T00:37:51.572Z,6.67
2018-01-27T00:38:51.543Z,6.77
2018-01-27T00:39:51.764Z,6.81
2018-01-27T00:40:51.735Z,6.67
2018-01-27T00:41:51.711Z,6.75
2018-01-27T00:42:51.689Z,6.77
2018-01-27T00:43:51.659Z,6.75
2018-01-27T00:44:51.385Z,6.78
2018-01-27T00:45:51.599Z,6.75
2018-01-27T00:46:51.584Z,6.78
2018-01-27T00:47:51.299Z,6.74
2018-01-27T00:48:51.275Z,6.77
2018-01-27T00:49:51.496Z,6.75
2018-01-27T00:50:50.976Z,6.79
2018-01-27T00:51:51.195Z,6.72
2018-01-27T00:52:51.418Z,6.72
2018-01-27T00:53:51.384Z,6.81
2018-01-27T00:54:51.355Z,6.79
2018-01-27T00:55:51.332Z,6.75
2018-01-27T00:56:51.305Z,6.77
2018-01-27T00:57:51.286Z,6.77
2018-01-27T00:58:51.254Z,6.75
2018-01-27T00:59:50.985Z,6.79
2018-01-27T01:00:50.952Z,6.7
2018-01-27T01:01:51.168Z,6.75
2018-01-27T01:02:51.145Z,6.72
2018-01-27T01:03:51.116Z,6.78
2018-01-27T01:04:51.095Z,6.75
2018-01-27T01:05:50.815Z,6.75
2018-01-27T01:06:51.035Z,6.77
2018-01-27T01:07:51.006Z,6.72
2018-01-27T01:08:50.996Z,6.75
2018-01-27T01:09:50.955Z,6.78
2018-01-27T01:10:50.978Z,6.78
2018-01-27T01:11:50.656Z,6.79
2018-01-27T01:12:50.629Z,6.81
2018-01-27T01:13:50.848Z,6.77
2018-01-27T01:14:50.574Z,6.72
2018-01-27T01:15:50.847Z,6.75
2018-01-27T01:16:50.872Z,6.75
2018-01-27T01:17:50.494Z,6.77
2018-01-27T01:18:50.713Z,6.72
2018-01-27T01:19:50.438Z,6.72
2018-01-27T01:20:50.665Z,6.75
2018-01-27T01:21:50.389Z,6.69
2018-01-27T01:22:50.360Z,6.7
2018-01-27T01:23:50.579Z,6.67
2018-01-27T01:24:50.550Z,6.69
2018-01-27T01:25:50.530Z,6.67
2018-01-27T01:26:50.497Z,6.7
2018-01-27T01:27:50.223Z,6.7
2018-01-27T01:28:50.198Z,6.69
2018-01-27T01:29:50.169Z,6.72
2018-01-27T01:30:50.154Z,6.7
2018-01-27T01:31:50.120Z,6.66
2018-01-27T01:32:50.346Z,6.72
2018-01-27T01:33:49.818Z,6.7
2018-01-27T01:34:50.283Z,6.72
2018-01-27T01:35:50.010Z,6.63
2018-01-27T01:36:50.231Z,6.67
2018-01-27T01:37:50.216Z,6.66
2018-01-27T01:38:50.184Z,6.66
2018-01-27T01:39:49.913Z,6.67
2018-01-27T01:40:49.886Z,6.6
2018-01-27T01:41:50.097Z,6.67
2018-01-27T01:42:50.067Z,6.69
2018-01-27T01:43:50.042Z,6.72
2018-01-27T01:44:50.012Z,6.7
2018-01-27T01:45:49.983Z,6.63
2018-01-27T01:46:49.713Z,6.69
2018-01-27T01:47:49.934Z,6.66
2018-01-27T01:48:49.659Z,6.59
2018-01-27T01:49:49.879Z,6.59
2018-01-27T01:50:49.602Z,6.69
2018-01-27T01:51:49.825Z,6.62
2018-01-27T01:52:49.799Z,6.67
2018-01-27T01:53:49.769Z,6.64
2018-01-27T01:54:49.494Z,6.59
2018-01-27T01:55:49.717Z,6.64
2018-01-27T01:56:49.694Z,6.6
2018-01-27T01:57:49.419Z,6.62
2018-01-27T01:58:49.639Z,6.64
2018-01-27T01:59:49.365Z,6.64
2018-01-27T02:00:49.585Z,6.67
2018-01-27T02:01:49.556Z,6.63
2018-01-27T02:02:49.526Z,6.6
2018-01-27T02:03:49.498Z,6.69
2018-01-27T02:04:49.477Z,6.59
2018-01-27T02:05:49.445Z,6.67
2018-01-27T02:06:49.426Z,6.69
2018-01-27T02:07:49.397Z,6.67
2018-01-27T02:08:49.366Z,6.63
2018-01-27T02:09:49.338Z,6.59
2018-01-27T02:10:49.313Z,6.72
2018-01-27T02:11:49.288Z,6.59
2018-01-27T02:12:49.254Z,6.6
2018-01-27T02:13:49.243Z,6.67
2018-01-27T02:14:48.960Z,6.66
2018-01-27T02:15:49.178Z,6.57
2018-01-27T02:16:49.155Z,6.63
2018-01-27T02:17:49.126Z,6.69
2018-01-27T02:18:49.095Z,6.62
2018-01-27T02:19:49.070Z,6.64
2018-01-27T02:20:49.037Z,6.59
2018-01-27T02:21:49.016Z,6.59
2018-01-27T02:22:48.982Z,6.6
2018-01-27T02:23:48.961Z,6.62
2018-01-27T02:24:48.932Z,6.69
2018-01-27T02:25:48.912Z,6.63
2018-01-27T02:26:48.886Z,6.66
2018-01-27T02:27:48.851Z,6.59
2018-01-27T02:28:48.830Z,6.66
2018-01-27T02:29:48.798Z,6.63
2018-01-27T02:30:48.526Z,6.66
2018-01-27T02:31:48.501Z,6.66
2018-01-27T02:32:48.722Z,6.62
2018-01-27T02:33:48.689Z,6.63
2018-01-27T02:34:48.663Z,6.66
2018-01-27T02:35:48.639Z,6.62
2018-01-27T02:36:48.617Z,6.52
2018-01-27T02:37:48.588Z,6.66
2018-01-27T02:38:48.308Z,6.59
2018-01-27T02:39:48.530Z,6.69
2018-01-27T02:40:48.513Z,6.63
2018-01-27T02:41:48.476Z,6.66
2018-01-27T02:42:48.449Z,6.69
2018-01-27T02:43:48.421Z,6.62
2018-01-27T02:44:48.400Z,6.56
2018-01-27T02:45:48.365Z,6.7
2018-01-27T02:46:48.349Z,6.63
2018-01-27T02:47:48.317Z,6.63
2018-01-27T02:48:48.283Z,6.56
2018-01-27T02:49:48.265Z,6.59
2018-01-27T02:50:47.988Z,6.64
2018-01-27T02:51:48.206Z,6.62
2018-01-27T02:52:48.183Z,6.59
2018-01-27T02:53:48.149Z,6.6
2018-01-27T02:54:47.628Z,6.63
2018-01-27T02:55:48.094Z,6.56
2018-01-27T02:56:48.067Z,6.59
2018-01-27T02:57:48.038Z,6.56
2018-01-27T02:58:47.521Z,6.57
2018-01-27T02:59:47.985Z,6.59
2018-01-27T03:00:47.958Z,6.52
2018-01-27T03:01:48.289Z,6.62
2018-01-27T03:02:48.267Z,6.57
2018-01-27T03:03:47.880Z,6.64
2018-01-27T03:04:47.604Z,6.54
2018-01-27T03:05:47.833Z,6.6
2018-01-27T03:06:47.800Z,6.64
2018-01-27T03:07:47.774Z,6.62
2018-01-27T03:08:47.500Z,6.64
2018-01-27T03:09:47.717Z,6.67
2018-01-27T03:10:47.686Z,6.66
2018-01-27T03:11:47.411Z,6.67
2018-01-27T03:12:47.387Z,6.62
2018-01-27T03:13:47.605Z,6.64
2018-01-27T03:14:47.335Z,6.54
2018-01-27T03:15:47.556Z,6.67
2018-01-27T03:16:47.527Z,6.66
2018-01-27T03:17:47.256Z,6.67
2018-01-27T03:18:47.226Z,6.66
2018-01-27T03:19:47.444Z,6.7
2018-01-27T03:20:47.172Z,6.72
2018-01-27T03:21:47.141Z,6.74
2018-01-27T03:22:47.114Z,6.67
2018-01-27T03:23:47.094Z,6.77
2018-01-27T03:24:47.308Z,6.7
2018-01-27T03:25:47.286Z,6.7
2018-01-27T03:26:47.260Z,6.81
2018-01-27T03:27:47.226Z,6.79
2018-01-27T03:28:47.198Z,6.79
2018-01-27T03:29:46.929Z,6.75
2018-01-27T03:30:47.152Z,6.79
2018-01-27T03:31:46.877Z,6.75
2018-01-27T03:32:47.097Z,6.79
2018-01-27T03:33:46.826Z,6.84
2018-01-27T03:34:47.035Z,6.78
2018-01-27T03:35:47.008Z,6.84
2018-01-27T03:36:46.982Z,6.82
2018-01-27T03:37:46.955Z,6.81
2018-01-27T03:38:46.933Z,6.77
2018-01-27T03:39:46.659Z,6.77
2018-01-27T03:40:46.873Z,6.81
2018-01-27T03:41:46.611Z,6.82
2018-01-27T03:42:46.819Z,6.79
2018-01-27T03:43:46.553Z,6.75
2018-01-27T03:44:46.765Z,6.7
2018-01-27T03:45:46.742Z,6.77
2018-01-27T03:46:46.718Z,6.74
2018-01-27T03:47:46.692Z,6.7
2018-01-27T03:48:46.662Z,6.77
2018-01-27T03:49:46.631Z,6.82
2018-01-27T03:50:46.607Z,6.7
2018-01-27T03:51:46.575Z,6.81
2018-01-27T03:52:46.552Z,6.72
2018-01-27T03:53:46.523Z,6.81
2018-01-27T03:54:46.493Z,6.77
2018-01-27T03:55:46.225Z,6.79
2018-01-27T03:56:46.198Z,6.75
2018-01-27T03:57:46.418Z,6.72
2018-01-27T03:58:46.149Z,6.74
2018-01-27T03:59:46.361Z,6.72
2018-01-27T04:00:46.340Z,6.69
2018-01-27T04:01:45.813Z,6.74
2018-01-27T04:02:46.035Z,6.74
2018-01-27T04:03:46.261Z,6.64
2018-01-27T04:04:46.226Z,6.69
2018-01-27T04:05:46.202Z,6.74
2018-01-27T04:06:46.178Z,6.75
2018-01-27T04:07:46.148Z,6.75
2018-01-27T04:08:46.125Z,6.64
2018-01-27T04:09:45.845Z,6.75
2018-01-27T04:10:46.068Z,6.63
2018-01-27T04:11:47.505Z,6.67
2018-01-27T04:12:46.009Z,6.69
2018-01-27T04:13:45.982Z,6.6
2018-01-27T04:14:45.468Z,6.67
2018-01-27T04:15:45.932Z,6.67
2018-01-27T04:16:45.900Z,6.62
2018-01-27T04:17:45.875Z,6.63
2018-01-27T04:18:45.602Z,6.66
2018-01-27T04:19:45.575Z,6.59
2018-01-27T04:20:45.795Z,6.52
2018-01-27T04:21:45.763Z,6.64
2018-01-27T04:22:45.743Z,6.66
2018-01-27T04:23:45.707Z,6.59
2018-01-27T04:24:45.687Z,6.59
2018-01-27T04:25:45.662Z,6.62
2018-01-27T04:26:45.632Z,6.52
2018-01-27T04:27:45.602Z,6.56
2018-01-27T04:28:45.586Z,6.59
2018-01-27T04:29:45.307Z,6.54
2018-01-27T04:30:45.315Z,6.49
2018-01-27T04:31:45.495Z,6.52
2018-01-27T04:32:45.464Z,6.49
2018-01-27T04:33:45.442Z,6.46
2018-01-27T04:34:44.917Z,6.51
2018-01-27T04:35:45.143Z,6.49
2018-01-27T04:36:45.408Z,6.49
2018-01-27T04:37:45.329Z,6.48
2018-01-27T04:38:45.304Z,6.44
2018-01-27T04:39:45.282Z,6.54
2018-01-27T04:40:45.001Z,6.46
2018-01-27T04:41:45.215Z,6.46
2018-01-27T04:42:45.193Z,6.52
2018-01-27T04:43:45.171Z,6.52
2018-01-27T04:44:45.132Z,6.44
2018-01-27T04:45:45.112Z,6.51
2018-01-27T04:46:44.840Z,6.48
2018-01-27T04:47:45.050Z,6.52
2018-01-27T04:48:45.024Z,6.48
2018-01-27T04:49:44.999Z,6.45
2018-01-27T04:50:44.727Z,6.42
2018-01-27T04:51:44.698Z,6.41
2018-01-27T04:52:44.919Z,6.33
2018-01-27T04:53:44.894Z,6.31
2018-01-27T04:54:44.859Z,6.3
2018-01-27T04:55:44.842Z,6.24
2018-01-27T04:56:44.562Z,6.2
2018-01-27T04:57:44.884Z,6.16
2018-01-27T04:58:44.751Z,6.17
2018-01-27T04:59:44.722Z,6.2
2018-01-27T05:00:44.692Z,6.16
2018-01-27T05:01:44.668Z,6.17
2018-01-27T05:02:44.445Z,6.16
2018-01-27T05:03:44.614Z,6.17
2018-01-27T05:04:44.343Z,6.24
2018-01-27T05:05:44.558Z,6.16
2018-01-27T05:06:44.537Z,6.14
2018-01-27T05:07:44.009Z,6.14
2018-01-27T05:08:44.471Z,6.11
2018-01-27T05:09:44.443Z,6.16
2018-01-27T05:10:44.177Z,6.16
2018-01-27T05:11:44.435Z,6.14
2018-01-27T05:12:44.116Z,6.27
2018-01-27T05:13:44.341Z,6.28
2018-01-27T05:14:44.459Z,6.17
2018-01-27T05:15:44.277Z,6.12
2018-01-27T05:16:44.259Z,6.19
2018-01-27T05:17:43.976Z,6.27
2018-01-27T05:18:44.198Z,6.11
2018-01-27T05:19:43.924Z,6.14
2018-01-27T05:20:44.141Z,6.14
2018-01-27T05:21:44.109Z,6.26
2018-01-27T05:22:43.845Z,6.11
2018-01-27T05:23:44.066Z,6.12
2018-01-27T05:24:43.540Z,6.16
2018-01-27T05:25:43.759Z,6.11
2018-01-27T05:26:43.981Z,6.07
2018-01-27T05:27:43.947Z,6.09
2018-01-27T05:28:43.679Z,6.07
2018-01-27T05:29:43.401Z,5.99
2018-01-27T05:30:43.620Z,6.02
2018-01-27T05:31:43.590Z,6.04
2018-01-27T05:32:43.569Z,5.99
2018-01-27T05:33:43.779Z,5.97
2018-01-27T05:34:43.505Z,6.01
2018-01-27T05:35:43.724Z,6.05
2018-01-27T05:36:43.705Z,6.05
2018-01-27T05:37:43.667Z,6.08
2018-01-27T05:38:43.393Z,6.07
2018-01-27T05:39:43.369Z,6.08
2018-01-27T05:40:43.587Z,6.09
2018-01-27T05:41:43.564Z,6.08
2018-01-27T05:42:43.534Z,6.12
2018-01-27T05:43:43.513Z,6.07
2018-01-27T05:44:42.982Z,6.19
2018-01-27T05:45:43.204Z,6.11
2018-01-27T05:46:43.418Z,6.11
2018-01-27T05:47:43.394Z,6.12
2018-01-27T05:48:43.116Z,6.14
2018-01-27T05:49:43.335Z,6.19
2018-01-27T05:50:43.306Z,6.19
2018-01-27T05:51:43.280Z,6.24
2018-01-27T05:52:43.254Z,6.19
2018-01-27T05:53:42.979Z,6.12
2018-01-27T05:54:43.199Z,6.22
2018-01-27T05:55:43.192Z,6.22
2018-01-27T05:56:42.894Z,6.16
2018-01-27T05:57:42.868Z,6.22
2018-01-27T05:58:42.843Z,6.2
2018-01-27T05:59:43.059Z,6.12
2018-01-27T06:00:42.785Z,6.19
2018-01-27T06:01:43.000Z,6.11
2018-01-27T06:02:42.971Z,6.12
2018-01-27T06:03:42.949Z,6.19
2018-01-27T06:04:42.675Z,6.2
2018-01-27T06:05:42.643Z,6.16
2018-01-27T06:06:42.371Z,6.14
2018-01-27T06:07:42.836Z,6.14
2018-01-27T06:08:42.565Z,6.12
2018-01-27T06:09:42.533Z,6.16
2018-01-27T06:10:42.506Z,6.11
2018-01-27T06:11:42.483Z,6.14
2018-01-27T06:12:42.695Z,6.17
2018-01-27T06:13:42.678Z,6.12
2018-01-27T06:14:42.396Z,6.09
2018-01-27T06:15:42.621Z,6.12
2018-01-27T06:16:42.586Z,6.11
2018-01-27T06:17:42.554Z,6.11
2018-01-27T06:18:42.284Z,6.08
2018-01-27T06:19:42.260Z,6.07
2018-01-27T06:20:42.471Z,6.02
2018-01-27T06:21:42.455Z,6.05
2018-01-27T06:22:42.420Z,6.05
2018-01-27T06:23:42.389Z,6.04
2018-01-27T06:24:42.361Z,6.02
2018-01-27T06:25:42.334Z,6.02
2018-01-27T06:26:42.304Z,6.08
2018-01-27T06:27:42.287Z,6.07
2018-01-27T06:28:42.010Z,6.04
2018-01-27T06:29:42.220Z,6.09
2018-01-27T06:30:41.956Z,6.02
2018-01-27T06:31:41.939Z,5.98
2018-01-27T06:32:42.193Z,6.01
2018-01-27T06:33:42.113Z,5.87
2018-01-27T06:34:42.089Z,5.91
2018-01-27T06:35:42.061Z,5.97
2018-01-27T06:36:41.785Z,5.97
2018-01-27T06:37:41.753Z,5.93
2018-01-27T06:38:41.991Z,5.94
2018-01-27T06:39:41.700Z,5.91
2018-01-27T06:40:41.994Z,5.9
2018-01-27T06:41:41.644Z,5.9
2018-01-27T06:42:41.370Z,5.94
2018-01-27T06:43:41.835Z,5.91
2018-01-27T06:44:41.560Z,5.99
2018-01-27T06:45:41.792Z,5.87
2018-01-27T06:46:41.750Z,5.89
2018-01-27T06:47:41.721Z,5.82
2018-01-27T06:48:41.692Z,5.89
2018-01-27T06:49:41.426Z,5.89
2018-01-27T06:50:41.641Z,5.82
2018-01-27T06:51:41.371Z,5.86
2018-01-27T06:52:41.580Z,5.91
2018-01-27T06:53:41.308Z,5.8
2018-01-27T06:54:41.525Z,5.8
2018-01-27T06:55:41.498Z,5.89
2018-01-27T06:56:41.221Z,5.83
2018-01-27T06:57:41.451Z,5.87
2018-01-27T06:58:41.172Z,5.87
2018-01-27T06:59:41.141Z,5.82
2018-01-27T07:00:41.112Z,5.9
2018-01-27T07:01:41.082Z,5.84
2018-01-27T07:02:41.301Z,5.86
2018-01-27T07:03:41.029Z,5.84
2018-01-27T07:04:41.103Z,5.87
2018-01-27T07:05:41.216Z,5.9
2018-01-27T07:06:40.946Z,5.86
2018-01-27T07:07:40.916Z,5.94
2018-01-27T07:08:40.892Z,5.86
2018-01-27T07:09:40.863Z,5.86
2018-01-27T07:10:41.131Z,5.9
2018-01-27T07:11:41.052Z,5.86
2018-01-27T07:12:41.029Z,5.87
2018-01-27T07:13:40.992Z,5.84
2018-01-27T07:14:40.969Z,5.72
2018-01-27T07:15:40.944Z,5.79
2018-01-27T07:16:40.916Z,5.75
2018-01-27T07:17:40.637Z,5.72
2018-01-27T07:18:40.852Z,5.68
2018-01-27T07:19:41.008Z,5.65
2018-01-27T07:20:40.557Z,5.59
2018-01-27T07:21:40.529Z,5.56
2018-01-27T07:22:40.747Z,5.61
2018-01-27T07:23:40.716Z,5.56
2018-01-27T07:24:40.687Z,5.54
2018-01-27T07:25:40.661Z,5.39
2018-01-27T07:26:40.632Z,5.46
2018-01-27T07:27:40.603Z,5.41
2018-01-27T07:28:40.575Z,5.39
2018-01-27T07:29:40.304Z,5.35
2018-01-27T07:30:40.524Z,5.33
2018-01-27T07:31:40.245Z,5.29
2018-01-27T07:32:40.463Z,5.36
2018-01-27T07:33:40.437Z,5.3
2018-01-27T07:34:40.408Z,5.25
2018-01-27T07:35:40.135Z,5.26
2018-01-27T07:36:40.351Z,5.17
2018-01-27T07:37:40.074Z,5.18
2018-01-27T07:38:40.294Z,5.21
2018-01-27T07:39:40.024Z,5.18
2018-01-27T07:40:40.235Z,5.25
2018-01-27T07:41:40.206Z,5.2
2018-01-27T07:42:40.177Z,5.15
2018-01-27T07:43:40.158Z,5.12
2018-01-27T07:44:40.126Z,5.14
2018-01-27T07:45:40.091Z,5.14
2018-01-27T07:46:40.064Z,5.14
2018-01-27T07:47:40.041Z,5.12
2018-01-27T07:48:39.517Z,5.02
2018-01-27T07:49:39.738Z,5.07
2018-01-27T07:50:39.953Z,5.02
2018-01-27T07:51:39.676Z,5.08
2018-01-27T07:52:39.914Z,5.05
2018-01-27T07:53:39.864Z,5.07
2018-01-27T07:54:39.840Z,4.99
2018-01-27T07:55:39.810Z,4.99
2018-01-27T07:56:39.541Z,5
2018-01-27T07:57:39.512Z,4.97
2018-01-27T07:58:39.752Z,5.04
2018-01-27T07:59:39.698Z,5
2018-01-27T08:00:39.173Z,4.87
2018-01-27T08:01:39.639Z,5
2018-01-27T08:02:39.609Z,5
2018-01-27T08:03:39.578Z,4.99
2018-01-27T08:04:39.553Z,4.92
2018-01-27T08:05:39.525Z,4.97
2018-01-27T08:06:39.492Z,4.93
2018-01-27T08:07:39.465Z,5.02
2018-01-27T08:08:39.438Z,5.1
2018-01-27T08:09:39.402Z,5.04
2018-01-27T08:10:39.384Z,5.1
2018-01-27T08:11:39.352Z,5.12
2018-01-27T08:12:39.326Z,5.12
2018-01-27T08:13:39.044Z,5.2
2018-01-27T08:14:39.271Z,5.15
2018-01-27T08:15:39.240Z,5.3
2018-01-27T08:16:39.255Z,5.33
2018-01-27T08:17:39.179Z,5.29
2018-01-27T08:18:39.155Z,5.36
2018-01-27T08:19:39.130Z,5.36
2018-01-27T08:20:39.092Z,5.46
2018-01-27T08:21:39.070Z,5.43
2018-01-27T08:22:39.097Z,5.41
2018-01-27T08:23:38.521Z,5.38
2018-01-27T08:24:38.738Z,5.44
2018-01-27T08:25:38.707Z,5.47
2018-01-27T08:26:38.949Z,5.46
2018-01-27T08:27:38.914Z,5.33
2018-01-27T08:28:38.871Z,5.38
2018-01-27T08:29:38.840Z,5.48
2018-01-27T08:30:38.814Z,5.47
2018-01-27T08:31:38.787Z,5.47
2018-01-27T08:32:38.515Z,5.54
2018-01-27T08:33:38.733Z,5.5
2018-01-27T08:34:38.702Z,5.51
2018-01-27T08:35:38.671Z,5.53
2018-01-27T08:36:38.640Z,5.54
2018-01-27T08:37:38.612Z,5.61
2018-01-27T08:38:38.588Z,5.56
2018-01-27T08:39:38.556Z,5.51
2018-01-27T08:40:38.531Z,5.61
2018-01-27T08:41:38.506Z,5.62
2018-01-27T08:42:38.477Z,5.66
2018-01-27T08:43:38.458Z,5.62
2018-01-27T08:44:38.423Z,5.65
2018-01-27T08:45:38.403Z,5.59
2018-01-27T08:46:38.370Z,5.47
2018-01-27T08:47:38.098Z,5.46
2018-01-27T08:48:37.820Z,5.44
2018-01-27T08:49:38.286Z,5.36
2018-01-27T08:50:38.013Z,5.44
2018-01-27T08:51:38.231Z,5.39
2018-01-27T08:52:37.964Z,5.43
2018-01-27T08:53:38.182Z,5.33
2018-01-27T08:54:38.203Z,5.35
2018-01-27T08:55:38.157Z,5.39
2018-01-27T08:56:38.096Z,5.41
2018-01-27T08:57:37.824Z,5.44
2018-01-27T08:58:38.039Z,5.43
2018-01-27T08:59:37.761Z,5.51
2018-01-27T09:00:37.736Z,5.47
2018-01-27T09:01:37.955Z,5.43
2018-01-27T09:02:37.930Z,5.51
2018-01-27T09:03:37.902Z,5.53
2018-01-27T09:04:37.870Z,5.65
2018-01-27T09:05:37.349Z,5.57
2018-01-27T09:06:37.821Z,5.66
2018-01-27T09:07:37.789Z,5.72
2018-01-27T09:08:37.759Z,5.73
2018-01-27T09:09:37.729Z,5.79
2018-01-27T09:10:37.730Z,5.86
2018-01-27T09:11:37.679Z,5.83
2018-01-27T09:12:37.404Z,5.9
2018-01-27T09:13:37.377Z,5.91
2018-01-27T09:14:37.599Z,5.93
2018-01-27T09:15:37.569Z,5.99
2018-01-27T09:16:37.298Z,6.01
2018-01-27T09:17:37.519Z,6.14
2018-01-27T09:18:37.491Z,6.12
2018-01-27T09:19:37.462Z,6.14
2018-01-27T09:20:37.438Z,6.16
2018-01-27T09:21:37.416Z,6.3
2018-01-27T09:22:37.381Z,6.28
2018-01-27T09:23:37.402Z,6.33
2018-01-27T09:24:37.332Z,6.28
2018-01-27T09:25:37.300Z,6.26
2018-01-27T09:26:37.324Z,6.22
2018-01-27T09:27:37.245Z,6.31
2018-01-27T09:28:37.253Z,6.27
2018-01-27T09:29:37.212Z,6.17
2018-01-27T09:30:37.173Z,6.14
2018-01-27T09:31:37.145Z,6.09
2018-01-27T09:32:37.115Z,6.12
2018-01-27T09:33:36.839Z,6.12
2018-01-27T09:34:36.813Z,6.16
2018-01-27T09:35:37.032Z,6.12
2018-01-27T09:36:36.764Z,6.08
2018-01-27T09:37:36.790Z,6.09
2018-01-27T09:38:36.706Z,6.17
2018-01-27T09:39:36.927Z,6.11
2018-01-27T09:40:36.975Z,6.04
2018-01-27T09:41:37.841Z,6.09
2018-01-27T09:42:37.035Z,6.11
2018-01-27T09:43:37.858Z,6.02
2018-01-27T09:44:37.359Z,6.12
2018-01-27T09:45:37.385Z,6.07
2018-01-27T09:46:36.737Z,6.11
2018-01-27T09:47:36.460Z,6.17
2018-01-27T09:48:36.686Z,6.11
2018-01-27T09:49:36.406Z,6.11
2018-01-27T09:50:36.629Z,6.16
2018-01-27T09:51:36.457Z,6.17
2018-01-27T09:52:36.570Z,6.14
2018-01-27T09:53:36.544Z,6.12
2018-01-27T09:54:36.271Z,6.14
2018-01-27T09:55:36.250Z,6.19
2018-01-27T09:56:36.462Z,6.24
2018-01-27T09:57:36.190Z,6.26
2018-01-27T09:58:36.162Z,6.27
2018-01-27T09:59:36.390Z,6.14
2018-01-27T10:00:36.354Z,6.3
2018-01-27T10:01:36.085Z,6.24
2018-01-27T10:02:36.298Z,6.33
2018-01-27T10:03:36.277Z,6.33
2018-01-27T10:04:36.256Z,6.3
2018-01-27T10:05:35.974Z,6.41
2018-01-27T10:06:36.194Z,6.39
2018-01-27T10:07:35.921Z,6.44
2018-01-27T10:08:36.141Z,6.44
2018-01-27T10:09:36.115Z,6.51
2018-01-27T10:10:36.127Z,6.49
2018-01-27T10:11:36.058Z,6.64
2018-01-27T10:12:36.182Z,6.63
2018-01-27T10:13:35.765Z,6.67
2018-01-27T10:14:35.975Z,6.69
2018-01-27T10:15:35.951Z,6.79
2018-01-27T10:16:35.924Z,6.88
2018-01-27T10:17:35.895Z,6.92
2018-01-27T10:18:35.874Z,6.92
2018-01-27T10:19:35.845Z,6.92
2018-01-27T10:20:35.820Z,6.93
2018-01-27T10:21:35.794Z,6.96
2018-01-27T10:22:35.782Z,6.92
2018-01-27T10:23:35.738Z,6.95
2018-01-27T10:24:35.714Z,6.92
2018-01-27T10:25:35.689Z,6.99
2018-01-27T10:26:35.747Z,7
2018-01-27T10:27:35.644Z,7.03
2018-01-27T10:28:35.382Z,7.1
2018-01-27T10:29:35.588Z,7.14
2018-01-27T10:30:35.624Z,7.2
2018-01-27T10:31:35.535Z,7.14
2018-01-27T10:32:35.509Z,7.18
2018-01-27T10:33:35.483Z,7.33
2018-01-27T10:34:35.462Z,7.29
2018-01-27T10:35:35.432Z,7.33
2018-01-27T10:36:35.408Z,7.29
2018-01-27T10:37:35.392Z,7.32
2018-01-27T10:38:35.357Z,7.43
2018-01-27T10:39:35.337Z,7.42
2018-01-27T10:40:35.348Z,7.43
2018-01-27T10:41:35.036Z,7.48
2018-01-27T10:42:35.013Z,7.63
2018-01-27T10:43:35.234Z,7.6
2018-01-27T10:44:35.210Z,7.61
2018-01-27T10:45:35.185Z,7.76
2018-01-27T10:46:34.916Z,7.72
2018-01-27T10:47:35.188Z,7.77
2018-01-27T10:48:35.108Z,7.85
2018-01-27T10:49:35.089Z,7.77
2018-01-27T10:50:35.057Z,7.8
2018-01-27T10:51:35.037Z,7.88
2018-01-27T10:52:34.767Z,7.91
2018-01-27T10:53:34.739Z,7.95
2018-01-27T10:54:34.714Z,7.97
2018-01-27T10:55:34.943Z,7.97
2018-01-27T10:56:34.912Z,7.91
2018-01-27T10:57:34.886Z,7.94
2018-01-27T10:58:34.856Z,7.95
2018-01-27T10:59:34.839Z,7.91
2018-01-27T11:00:34.565Z,7.91
2018-01-27T11:01:34.786Z,7.88
2018-01-27T11:02:34.760Z,7.82
2018-01-27T11:03:34.737Z,7.8
2018-01-27T11:04:34.470Z,7.77
2018-01-27T11:05:34.444Z,7.88
2018-01-27T11:06:34.444Z,7.94
2018-01-27T11:07:34.398Z,7.9
2018-01-27T11:08:34.371Z,7.95
2018-01-27T11:09:34.342Z,7.95
2018-01-27T11:10:34.322Z,8.03
2018-01-27T11:11:34.544Z,8
2018-01-27T11:12:34.270Z,7.9
2018-01-27T11:13:34.840Z,7.87
2018-01-27T11:14:34.472Z,7.85
2018-01-27T11:15:34.196Z,7.9
2018-01-27T11:16:34.419Z,7.88
2018-01-27T11:17:34.394Z,7.98
2018-01-27T11:18:34.363Z,7.95
2018-01-27T11:19:34.345Z,7.95
2018-01-27T11:20:34.329Z,7.94
2018-01-27T11:21:34.297Z,7.94
2018-01-27T11:22:34.265Z,7.95
2018-01-27T11:23:34.001Z,7.97
2018-01-27T11:24:33.973Z,7.94
2018-01-27T11:25:33.952Z,7.94
2018-01-27T11:26:34.182Z,8
2018-01-27T11:27:34.147Z,7.98
2018-01-27T11:28:34.124Z,8.01
2018-01-27T11:29:34.102Z,8.05
2018-01-27T11:30:33.840Z,8.01
2018-01-27T11:31:34.047Z,7.97
2018-01-27T11:32:34.026Z,8.05
2018-01-27T11:33:34.002Z,7.93
2018-01-27T11:34:33.974Z,7.9
2018-01-27T11:35:33.948Z,7.93
2018-01-27T11:36:33.923Z,7.88
2018-01-27T11:37:33.899Z,7.93
2018-01-27T11:38:33.889Z,7.93
2018-01-27T11:39:35.578Z,7.93
2018-01-27T11:40:34.226Z,7.94
2018-01-27T11:41:35.494Z,7.95
2018-01-27T11:42:34.593Z,7.98
2018-01-27T11:43:34.773Z,7.97
2018-01-27T11:44:34.283Z,7.95
2018-01-27T11:45:34.813Z,7.95
2018-01-27T11:46:34.128Z,7.93
2018-01-27T11:47:33.855Z,8
2018-01-27T11:48:33.634Z,7.9
2018-01-27T11:49:33.363Z,7.94
2018-01-27T11:50:33.336Z,7.9
2018-01-27T11:51:33.556Z,7.95
2018-01-27T11:52:33.039Z,8.05
2018-01-27T11:53:33.507Z,8.06
2018-01-27T11:54:33.234Z,8.06
2018-01-27T11:55:33.459Z,8.09
2018-01-27T11:56:33.434Z,8.2
2018-01-27T11:57:33.413Z,8.18
2018-01-27T11:58:33.138Z,8.2
2018-01-27T11:59:33.361Z,8.18
2018-01-27T12:00:33.347Z,8.16
2018-01-27T12:01:33.069Z,8.2
2018-01-27T12:02:33.046Z,8.23
2018-01-27T12:03:33.019Z,8.3
2018-01-27T12:04:33.043Z,8.33
2018-01-27T12:05:32.978Z,8.28
2018-01-27T12:06:33.195Z,8.3
2018-01-27T12:07:32.919Z,8.34
2018-01-27T12:08:33.147Z,8.3
2018-01-27T12:09:32.878Z,8.34
2018-01-27T12:10:33.098Z,8.34
2018-01-27T12:11:33.700Z,8.31
2018-01-27T12:12:33.217Z,8.2
2018-01-27T12:13:33.023Z,8.2
2018-01-27T12:14:33.036Z,8.18
2018-01-27T12:15:32.975Z,8.23
2018-01-27T12:16:33.052Z,8.16
2018-01-27T12:17:32.926Z,8.3
2018-01-27T12:18:32.904Z,8.33
2018-01-27T12:19:32.627Z,8.26
2018-01-27T12:20:32.863Z,8.23
2018-01-27T12:21:32.831Z,8.3
2018-01-27T12:22:32.564Z,8.24
2018-01-27T12:23:32.533Z,8.26
2018-01-27T12:24:32.760Z,8.27
2018-01-27T12:25:32.730Z,8.24
2018-01-27T12:26:32.702Z,8.18
2018-01-27T12:27:32.437Z,8.27
2018-01-27T12:28:32.721Z,8.27
2018-01-27T12:29:32.632Z,8.27
2018-01-27T12:30:32.360Z,8.36
2018-01-27T12:31:32.593Z,8.44
2018-01-27T12:32:32.584Z,8.45
2018-01-27T12:33:32.541Z,8.52
2018-01-27T12:34:32.271Z,8.55
2018-01-27T12:35:32.342Z,8.42
2018-01-27T12:36:31.972Z,8.53
2018-01-27T12:37:32.191Z,8.55
2018-01-27T12:38:32.416Z,8.58
2018-01-27T12:39:32.392Z,8.63
2018-01-27T12:40:32.117Z,8.64
2018-01-27T12:41:32.340Z,8.69
2018-01-27T12:42:32.316Z,8.7
2018-01-27T12:43:32.298Z,8.76
2018-01-27T12:44:32.023Z,8.76
2018-01-27T12:45:32.249Z,8.76
2018-01-27T12:46:32.220Z,8.79
2018-01-27T12:47:32.201Z,8.66
2018-01-27T12:48:32.173Z,8.79
2018-01-27T12:49:32.149Z,8.69
2018-01-27T12:50:31.929Z,8.7
2018-01-27T12:51:32.106Z,8.67
2018-01-27T12:52:31.587Z,8.7
2018-01-27T12:53:32.055Z,8.64
2018-01-27T12:54:32.030Z,8.67
2018-01-27T12:55:32.009Z,8.61
2018-01-27T12:56:31.743Z,8.66
2018-01-27T12:57:31.712Z,8.55
2018-01-27T12:58:31.936Z,8.56
2018-01-27T12:59:31.914Z,8.56
2018-01-27T13:00:31.985Z,8.58
2018-01-27T13:01:31.863Z,8.61
2018-01-27T13:02:31.595Z,8.64
2018-01-27T13:03:31.815Z,8.67
2018-01-27T13:04:31.791Z,8.64
2018-01-27T13:05:31.548Z,8.6
2018-01-27T13:06:31.247Z,8.66
2018-01-27T13:07:31.714Z,8.66
2018-01-27T13:08:31.443Z,8.63
2018-01-27T13:09:31.667Z,8.64
2018-01-27T13:10:31.399Z,8.61
2018-01-27T13:11:31.376Z,8.58
2018-01-27T13:12:31.342Z,8.45
2018-01-27T13:13:31.570Z,8.44
2018-01-27T13:14:31.052Z,8.49
2018-01-27T13:15:31.524Z,8.53
2018-01-27T13:16:31.497Z,8.46
2018-01-27T13:17:31.469Z,8.58
2018-01-27T13:18:31.439Z,8.51
2018-01-27T13:19:31.176Z,8.52
2018-01-27T13:20:31.390Z,8.44
2018-01-27T13:21:31.372Z,8.46